sensor_id;sensor_type;location;lat;lon;timestamp;pressure;altitude;pressure_sealevel;temperature;humidity
73525;BME280;61776;56.194;44.160;2022-07-10T00:01:52;100422.50;;;18.17;72.46
73525;BME280;61776;56.194;44.160;2022-07-10T00:04:17;100427.56;;;18.19;72.66
73525;BME280;61776;56.194;44.160;2022-07-10T00:06:45;100416.50;;;18.23;72.45
73525;BME280;61776;56.194;44.160;2022-07-10T00:09:15;100420.16;;;18.22;72.21
73525;BME280;61776;56.194;44.160;2022-07-10T00:11:42;100411.25;;;18.23;72.09
73525;BME280;61776;56.194;44.160;2022-07-10T00:14:08;100407.34;;;18.19;71.73
73525;BME280;61776;56.194;44.160;2022-07-10T00:16:34;100411.44;;;18.07;72.18
73525;BME280;61776;56.194;44.160;2022-07-10T00:19:00;100413.63;;;17.95;72.90
73525;BME280;61776;56.194;44.160;2022-07-10T00:21:26;100417.44;;;17.93;72.91
73525;BME280;61776;56.194;44.160;2022-07-10T00:23:52;100415.47;;;17.95;72.81
73525;BME280;61776;56.194;44.160;2022-07-10T00:26:18;100419.66;;;18.04;72.40
73525;BME280;61776;56.194;44.160;2022-07-10T00:28:44;100415.84;;;18.07;72.28
73525;BME280;61776;56.194;44.160;2022-07-10T00:31:10;100408.97;;;18.06;71.95
73525;BME280;61776;56.194;44.160;2022-07-10T00:33:36;100411.47;;;17.99;72.28
73525;BME280;61776;56.194;44.160;2022-07-10T00:36:06;100414.47;;;17.96;72.37
73525;BME280;61776;56.194;44.160;2022-07-10T00:38:33;100402.66;;;17.92;72.57
73525;BME280;61776;56.194;44.160;2022-07-10T00:40:59;100409.97;;;17.81;73.38
73525;BME280;61776;56.194;44.160;2022-07-10T00:43:25;100404.88;;;17.80;73.24
73525;BME280;61776;56.194;44.160;2022-07-10T00:45:51;100411.78;;;17.81;72.61
73525;BME280;61776;56.194;44.160;2022-07-10T00:48:17;100416.72;;;17.76;72.50
73525;BME280;61776;56.194;44.160;2022-07-10T00:50:44;100418.13;;;17.63;73.03
73525;BME280;61776;56.194;44.160;2022-07-10T00:53:12;100419.47;;;17.59;73.20
73525;BME280;61776;56.194;44.160;2022-07-10T00:55:39;100410.44;;;17.62;73.15
73525;BME280;61776;56.194;44.160;2022-07-10T00:58:06;100410.25;;;17.63;73.35
73525;BME280;61776;56.194;44.160;2022-07-10T01:00:34;100412.53;;;17.66;73.00
73525;BME280;61776;56.194;44.160;2022-07-10T01:03:03;100412.19;;;17.70;72.82
73525;BME280;61776;56.194;44.160;2022-07-10T01:05:29;100418.94;;;17.64;73.19
73525;BME280;61776;56.194;44.160;2022-07-10T01:07:55;100420.00;;;17.55;73.20
73525;BME280;61776;56.194;44.160;2022-07-10T01:10:21;100417.88;;;17.50;73.43
73525;BME280;61776;56.194;44.160;2022-07-10T01:12:47;100418.34;;;17.54;73.58
73525;BME280;61776;56.194;44.160;2022-07-10T01:15:13;100416.03;;;17.59;73.69
73525;BME280;61776;56.194;44.160;2022-07-10T01:17:39;100416.09;;;17.74;74.26
73525;BME280;61776;56.194;44.160;2022-07-10T01:20:06;100416.34;;;17.87;74.18
73525;BME280;61776;56.194;44.160;2022-07-10T01:22:33;100419.03;;;18.02;73.64
73525;BME280;61776;56.194;44.160;2022-07-10T01:24:58;100421.22;;;18.13;73.60
73525;BME280;61776;56.194;44.160;2022-07-10T01:27:24;100414.56;;;18.26;73.14
73525;BME280;61776;56.194;44.160;2022-07-10T01:29:50;100411.50;;;18.37;73.15
73525;BME280;61776;56.194;44.160;2022-07-10T01:32:18;100421.72;;;18.47;72.89
73525;BME280;61776;56.194;44.160;2022-07-10T01:34:44;100408.88;;;18.52;72.79
73525;BME280;61776;56.194;44.160;2022-07-10T01:37:10;100415.69;;;18.61;72.93
73525;BME280;61776;56.194;44.160;2022-07-10T01:39:37;100421.19;;;18.66;72.79
73525;BME280;61776;56.194;44.160;2022-07-10T01:42:02;100423.91;;;18.73;72.57
73525;BME280;61776;56.194;44.160;2022-07-10T02:31:05;100465.75;;;19.49;71.33
73525;BME280;61776;56.194;44.160;2022-07-10T02:34:16;100464.66;;;19.58;71.06
73525;BME280;61776;56.194;44.160;2022-07-10T02:38:05;100466.78;;;19.69;70.58
73525;BME280;61776;56.194;44.160;2022-07-10T02:41:11;100466.72;;;19.77;70.33
73525;BME280;61776;56.194;44.160;2022-07-10T02:44:17;100471.84;;;19.86;70.17
73525;BME280;61776;56.194;44.160;2022-07-10T02:47:23;100473.81;;;19.98;70.47
73525;BME280;61776;56.194;44.160;2022-07-10T02:50:34;100471.59;;;20.02;70.10
73525;BME280;61776;56.194;44.160;2022-07-10T14:13:31;100367.31;;;39.67;30.17
73525;BME280;61776;56.194;44.160;2022-07-10T14:16:18;100377.25;;;39.63;30.70
73525;BME280;61776;56.194;44.160;2022-07-10T14:18:45;100374.13;;;39.82;30.99
73525;BME280;61776;56.194;44.160;2022-07-10T14:21:14;100376.38;;;40.18;30.13
73525;BME280;61776;56.194;44.160;2022-07-10T14:23:44;100381.84;;;40.61;30.01
73525;BME280;61776;56.194;44.160;2022-07-10T14:26:13;100384.25;;;40.83;29.41
73525;BME280;61776;56.194;44.160;2022-07-10T14:28:43;100377.34;;;40.65;29.43
73525;BME280;61776;56.194;44.160;2022-07-10T14:31:17;100372.13;;;40.30;30.42
73525;BME280;61776;56.194;44.160;2022-07-10T14:33:47;100365.66;;;39.84;30.38
73525;BME280;61776;56.194;44.160;2022-07-10T14:36:20;100369.94;;;39.55;30.82
73525;BME280;61776;56.194;44.160;2022-07-10T14:38:56;100379.44;;;39.22;31.65
73525;BME280;61776;56.194;44.160;2022-07-10T14:41:25;100381.38;;;38.87;31.99
73525;BME280;61776;56.194;44.160;2022-07-10T14:43:58;100377.94;;;38.38;33.54
73525;BME280;61776;56.194;44.160;2022-07-10T14:46:28;100382.28;;;37.99;34.08
73525;BME280;61776;56.194;44.160;2022-07-10T14:49:00;100384.00;;;37.55;35.45
73525;BME280;61776;56.194;44.160;2022-07-10T14:51:31;100374.59;;;37.07;35.98
73525;BME280;61776;56.194;44.160;2022-07-10T14:54:03;100381.16;;;36.69;36.96
73525;BME280;61776;56.194;44.160;2022-07-10T14:56:35;100419.34;;;36.40;36.90
73525;BME280;61776;56.194;44.160;2022-07-10T14:59:03;100411.50;;;35.83;30.47
73525;BME280;61776;56.194;44.160;2022-07-10T15:01:36;100416.78;;;35.42;29.73
73525;BME280;61776;56.194;44.160;2022-07-10T15:04:08;100404.63;;;34.68;29.77
73525;BME280;61776;56.194;44.160;2022-07-10T15:06:40;100423.03;;;34.13;29.32
73525;BME280;61776;56.194;44.160;2022-07-10T15:09:12;100423.47;;;33.32;30.23
73525;BME280;61776;56.194;44.160;2022-07-10T15:11:45;100416.84;;;32.69;31.00
73525;BME280;61776;56.194;44.160;2022-07-10T15:14:19;100428.25;;;32.15;31.94
73525;BME280;61776;56.194;44.160;2022-07-10T15:16:51;100422.13;;;31.68;32.35
73525;BME280;61776;56.194;44.160;2022-07-10T15:19:25;100430.97;;;31.43;32.67
73525;BME280;61776;56.194;44.160;2022-07-10T15:21:56;100429.31;;;31.11;33.16
73525;BME280;61776;56.194;44.160;2022-07-10T15:24:28;100435.91;;;30.83;33.69
73525;BME280;61776;56.194;44.160;2022-07-10T15:27:00;100430.69;;;30.56;34.46
73525;BME280;61776;56.194;44.160;2022-07-10T15:29:32;100427.97;;;30.41;34.31
73525;BME280;61776;56.194;44.160;2022-07-10T15:32:06;100427.06;;;30.25;34.89
73525;BME280;61776;56.194;44.160;2022-07-10T15:34:38;100434.97;;;30.09;35.38
73525;BME280;61776;56.194;44.160;2022-07-10T15:37:33;100428.47;;;30.00;35.16
73525;BME280;61776;56.194;44.160;2022-07-10T15:40:05;100430.31;;;29.94;34.21
73525;BME280;61776;56.194;44.160;2022-07-10T15:42:37;100452.78;;;29.88;34.76
73525;BME280;61776;56.194;44.160;2022-07-10T15:45:08;100455.94;;;29.80;36.13
73525;BME280;61776;56.194;44.160;2022-07-10T15:47:40;100460.09;;;29.71;36.40
73525;BME280;61776;56.194;44.160;2022-07-10T15:50:11;100460.00;;;29.60;37.10
73525;BME280;61776;56.194;44.160;2022-07-10T15:52:42;100468.38;;;29.42;37.50
73525;BME280;61776;56.194;44.160;2022-07-10T15:55:13;100511.31;;;29.30;37.02
73525;BME280;61776;56.194;44.160;2022-07-10T15:57:44;100517.31;;;29.15;36.19
73525;BME280;61776;56.194;44.160;2022-07-10T16:00:14;100524.03;;;29.01;36.46
73525;BME280;61776;56.194;44.160;2022-07-10T16:02:48;100517.16;;;28.83;37.48
73525;BME280;61776;56.194;44.160;2022-07-10T16:05:19;100514.59;;;28.71;38.46
73525;BME280;61776;56.194;44.160;2022-07-10T16:07:50;100525.38;;;28.59;38.60
73525;BME280;61776;56.194;44.160;2022-07-10T16:10:21;100526.50;;;28.46;38.43
73525;BME280;61776;56.194;44.160;2022-07-10T16:12:50;100525.28;;;28.37;39.04
73525;BME280;61776;56.194;44.160;2022-07-10T16:15:23;100531.84;;;28.30;39.69
73525;BME280;61776;56.194;44.160;2022-07-10T16:17:55;100528.63;;;28.11;40.04
73525;BME280;61776;56.194;44.160;2022-07-10T16:20:47;100522.09;;;27.73;40.04
73525;BME280;61776;56.194;44.160;2022-07-10T16:28:39;100520.47;;;28.00;41.34
73525;BME280;61776;56.194;44.160;2022-07-10T16:31:06;100528.56;;;28.56;40.69
73525;BME280;61776;56.194;44.160;2022-07-10T16:36:27;100539.28;;;27.65;41.78
73525;BME280;61776;56.194;44.160;2022-07-10T16:38:53;100546.03;;;27.15;42.99
73525;BME280;61776;56.194;44.160;2022-07-10T16:41:19;100551.28;;;26.86;43.89
73525;BME280;61776;56.194;44.160;2022-07-10T16:43:45;100551.41;;;26.80;44.75
73525;BME280;61776;56.194;44.160;2022-07-10T16:46:10;100567.97;;;26.82;45.00
73525;BME280;61776;56.194;44.160;2022-07-10T16:48:36;100575.50;;;26.85;45.59
73525;BME280;61776;56.194;44.160;2022-07-10T16:51:02;100578.97;;;26.85;47.01
73525;BME280;61776;56.194;44.160;2022-07-10T16:53:28;100585.56;;;26.83;49.02
73525;BME280;61776;56.194;44.160;2022-07-10T16:55:55;100594.16;;;26.73;50.17
73525;BME280;61776;56.194;44.160;2022-07-10T16:58:21;100596.78;;;26.61;50.71
73525;BME280;61776;56.194;44.160;2022-07-10T17:00:47;100594.66;;;26.51;51.53
73525;BME280;61776;56.194;44.160;2022-07-10T17:03:15;100603.69;;;26.39;52.34
73525;BME280;61776;56.194;44.160;2022-07-10T17:05:42;100606.09;;;26.28;53.34
73525;BME280;61776;56.194;44.160;2022-07-10T17:08:08;100598.75;;;26.12;52.98
73525;BME280;61776;56.194;44.160;2022-07-10T17:10:35;100599.88;;;25.92;52.53
73525;BME280;61776;56.194;44.160;2022-07-10T17:13:02;100606.91;;;25.68;54.80
73525;BME280;61776;56.194;44.160;2022-07-10T17:15:29;100596.94;;;25.45;56.22
73525;BME280;61776;56.194;44.160;2022-07-10T17:17:54;100586.66;;;25.30;57.74
73525;BME280;61776;56.194;44.160;2022-07-10T17:20:21;100578.38;;;25.20;58.02
73525;BME280;61776;56.194;44.160;2022-07-10T17:22:53;100583.16;;;25.11;58.89
73525;BME280;61776;56.194;44.160;2022-07-10T17:25:19;100587.59;;;24.99;58.66
73525;BME280;61776;56.194;44.160;2022-07-10T17:27:47;100586.91;;;24.85;58.97
73525;BME280;61776;56.194;44.160;2022-07-10T17:30:13;100590.50;;;24.72;59.36
73525;BME280;61776;56.194;44.160;2022-07-10T17:32:40;100583.63;;;24.65;59.96
73525;BME280;61776;56.194;44.160;2022-07-10T17:35:07;100578.00;;;24.54;59.45
73525;BME280;61776;56.194;44.160;2022-07-10T17:37:33;100579.06;;;24.47;58.53
73525;BME280;61776;56.194;44.160;2022-07-10T17:40:00;100579.31;;;24.38;58.53
73525;BME280;61776;56.194;44.160;2022-07-10T17:42:26;100578.91;;;24.35;58.99
73525;BME280;61776;56.194;44.160;2022-07-10T17:44:52;100582.00;;;24.32;59.90
73525;BME280;61776;56.194;44.160;2022-07-10T17:47:18;100584.88;;;24.30;60.67
73525;BME280;61776;56.194;44.160;2022-07-10T17:49:53;100585.91;;;24.29;60.74
73525;BME280;61776;56.194;44.160;2022-07-10T17:52:20;100579.41;;;24.25;60.49
73525;BME280;61776;56.194;44.160;2022-07-10T17:54:46;100581.28;;;24.18;61.40
73525;BME280;61776;56.194;44.160;2022-07-10T17:57:12;100585.81;;;24.11;61.79
73525;BME280;61776;56.194;44.160;2022-07-10T17:59:38;100582.63;;;23.95;61.95
73525;BME280;61776;56.194;44.160;2022-07-10T18:02:04;100574.34;;;23.85;63.01
73525;BME280;61776;56.194;44.160;2022-07-10T18:04:32;100577.03;;;23.72;62.96
73525;BME280;61776;56.194;44.160;2022-07-10T18:06:58;100579.69;;;23.72;63.19
73525;BME280;61776;56.194;44.160;2022-07-10T18:09:24;100577.31;;;23.57;63.42
73525;BME280;61776;56.194;44.160;2022-07-10T18:11:50;100581.78;;;23.56;63.40
73525;BME280;61776;56.194;44.160;2022-07-10T18:14:15;100585.97;;;23.19;63.18
73525;BME280;61776;56.194;44.160;2022-07-10T18:20:31;100576.22;;;22.59;65.71
73525;BME280;61776;56.194;44.160;2022-07-10T18:24:01;100582.16;;;22.41;67.07
73525;BME280;61776;56.194;44.160;2022-07-10T18:30:36;100571.34;;;22.36;67.49
